Scat CRJ2 at Ust-Kamenogorsk on May 8th 2015, runway excursion on landing

Last Update: May 8, 2015 / 19:20:55 GMT/Zulu time

Bookmark this article
Incident Facts

Date of incident
May 8, 2015

Classification
Incident

ICAO Type Designator
CRJ2

A Scat Airlines Canadair CRJ-200, flight DV-725 from Almaty to Ust-Kamenogorsk (Kazakhstan), landed in Ust-Kamenogorsk at about 09:00L (03:00Z) but during roll out, already at low speed, veered left off the runway before coming to a stop. There were no injuries, no damage is being reported. The aircraft was able to taxi to the apron on its own.

The return flight was cancelled.

Kazakhstan's Civil Aviation Authority have opened an investigation into the occurrence.

Metars:
UASK 080500Z 22003MPS 180V280 9999 BKN230 23/09 Q1010 R12/090060 NOSIG RMK QFE732/0977
UASK 080430Z 18002MPS 130V250 9999 BKN230 22/09 Q1011 R12/090060 NOSIG RMK QFE733/0977
UASK 080400Z 18002MPS 120V280 9999 BKN230 21/08 Q1011 R12/090060 NOSIG RMK QFE733/0978
UASK 080330Z 17002MPS 110V240 9999 BKN230 20/09 Q1011 R12/090060 NOSIG RMK QFE733/0978
UASK 080300Z VRB01MPS 9999 BKN230 18/08 Q1012 R12/090060 NOSIG RMK QFE733/0978
UASK 080230Z VRB01MPS 9999 BKN230 17/08 Q1012 R12/090060 NOSIG RMK QFE734/0978
UASK 080200Z VRB01MPS 9999 BKN230 15/09 Q1012 R12/090060 NOSIG RMK QFE734/0978
UASK 080130Z VRB01MPS 9999 BKN230 13/09 Q1012 R12/090060 NOSIG RMK QFE734/0978
UASK 080100Z VRB01MPS 9999 BKN230 12/08 Q1012 R12/090060 NOSIG RMK QFE733/0978
UASK 080030Z 00000MPS 9999 BKN230 10/07 Q1012 R12/090060 NOSIG RMK QFE733/0978
UASK 080000Z 35001MPS 9999 BKN230 08/05 Q1012 R12/090060 NOSIG RMK QFE733/0978
Incident Facts

Date of incident
May 8, 2015

Classification
Incident

ICAO Type Designator
CRJ2

This article is published under license from Avherald.com. © of text by Avherald.com.
Article source

You can read 2 more free articles without a subscription.

Subscribe now and continue reading without any limits!

Are you a subscriber? Login
Subscribe

Read unlimited articles and receive our daily update briefing. Gain better insights into what is happening in commercial aviation safety.

Free newsletter

Want to know more and stay ahead? Get our free weekly newsletter and join 5471 existing subscribers.

By subscribing, you accept our terms and conditions and confirm that you've read our privacy policy.

Send tip

Support AeroInside by sending a small tip amount.

Related articles

Newest articles

Subscribe today

Are you researching aviation incidents? Get access to AeroInside Insights, unlimited read access and receive the daily newsletter.

Pick your plan and subscribe

Partner

Blockaviation logo

A new way to document and demonstrate airworthiness compliance and aircraft value. Find out more.

Virtual Speech logo

ELITE Simulation Solutions is a leading global provider of Flight Simulation Training Devices, IFR training software as well as flight controls and related services. Find out more.

Get updates

Never miss an article from AeroInside. Subscribe to our free weekly newsletter and join 5471 existing subscribers.

By subscribing, you accept our terms and conditions and that you've read our privacy policy.

AeroInside Blog
Popular aircraft
Airbus A320
Boeing 737-800
Boeing 737-800 MAX
Popular airlines
American Airlines
United
Delta
Air Canada
Lufthansa
British Airways